Terminal Aerodrome Forecast
Issued by NWS

Home | Current Version | Previous Version | Text Only | Print | Product List | Glossary Off
Versions: 1 2 3 4 5 6 7 8 9 10 11 12 13 14 15 16 17 18 19

000
FTUS42 KMHX 290500
TAFPGV
TAF
KPGV 290540Z 2906/3006 08003KT 6SM BR SCT040
     FM290800 VRB02KT 3SM BR BKN040
     FM291300 06004KT P6SM SCT040
     FM291800 08007KT P6SM BKN040
     FM300100 12005KT P6SM SCT040
      AMD LTD TO CLD VIS AND WIND=

USA.gov is the U.S. government's official web portal to all federal, state and local government web resources and services.